Home > Products > Valid Products > MTR

000
SAUS45 KREV 030954
MTRDRA
METAR KDRA 030953Z AUTO 07006KT 10SM CLR 12/06 A3008 RMK AO2 SLP155
T01220061





000
SAUS45 KREV 030954
MTRDRA
METAR KDRA 030953Z AUTO 07006KT 10SM CLR 12/06 A3008 RMK AO2 SLP155
T01220061





000
SAUS45 KREV 030855
MTRDRA
METAR KDRA 030853Z AUTO 07006KT 10SM CLR 13/05 A3008 RMK AO2 SLP155
T01330050 58001





000
SAUS45 KREV 030754
MTRDRA
METAR KDRA 030753Z AUTO 07006KT 10SM CLR 14/05 A3009 RMK AO2 SLP156
T01390050 402440106





000
SAUS45 KREV 030754
MTRDRA
METAR KDRA 030753Z AUTO 07006KT 10SM CLR 14/05 A3009 RMK AO2 SLP156
T01390050 402440106





000
SAUS45 KREV 030655
MTRDRA
METAR KDRA 030653Z AUTO 08005KT 10SM CLR 15/05 A3009 RMK AO2 SLP156
T01500050





000
SAUS45 KREV 030555
MTRDRA
METAR KDRA 030553Z AUTO 02005KT 10SM CLR 16/05 A3009 RMK AO2 SLP156
T01560050 10233 20156 51010





000
SAUS45 KREV 030555
MTRDRA
METAR KDRA 030553Z AUTO 02005KT 10SM CLR 16/05 A3009 RMK AO2 SLP156
T01560050 10233 20156 51010





000
SAUS45 KREV 030454
MTRDRA
METAR KDRA 030453Z AUTO 00000KT 10SM CLR 17/04 A3008 RMK AO2 SLP153
T01720044





000
SAUS45 KREV 030354
MTRDRA
METAR KDRA 030353Z AUTO 04007KT 10SM CLR 18/05 A3007 RMK AO2 SLP149
T01780050





000
SAUS45 KREV 030354
MTRDRA
METAR KDRA 030353Z AUTO 04007KT 10SM CLR 18/05 A3007 RMK AO2 SLP149
T01780050





000
SAUS45 KREV 030254
MTRDRA
METAR KDRA 030253Z AUTO 03007KT 10SM CLR 20/03 A3005 RMK AO2 SLP144
T02000028 53001





000
SAUS45 KREV 030154
MTRDRA
METAR KDRA 030153Z AUTO 03010KT 10SM CLR 22/01 A3004 RMK AO2 SLP138
T02220011





000
SAUS45 KREV 030055
MTRDRA
METAR KDRA 030053Z AUTO 04007KT 10SM CLR 23/01 A3004 RMK AO2 SLP141
T02330011





000
SAUS45 KREV 030055
MTRDRA
METAR KDRA 030053Z AUTO 04007KT 10SM CLR 23/01 A3004 RMK AO2 SLP141
T02330011





000
SAUS45 KREV 022355
MTRDRA
METAR KDRA 022353Z AUTO 01005KT 10SM CLR 23/02 A3005 RMK AO2 WSHFT
2259 SLP143 T02330017 10244 20200 56015





000
SAUS45 KREV 022355
MTRDRA
METAR KDRA 022353Z AUTO 01005KT 10SM CLR 23/02 A3005 RMK AO2 WSHFT
2259 SLP143 T02330017 10244 20200 56015





000
SAUS45 KREV 022318
MTRDRA
SPECI KDRA 022316Z AUTO 31009G17KT 10SM FEW070 BKN100 23/M02 A3005
RMK AO2 WSHFT 2259 T02331017





000
SAUS45 KREV 022318
MTRDRA
SPECI KDRA 022316Z AUTO 31009G17KT 10SM FEW070 BKN100 23/M02 A3005
RMK AO2 WSHFT 2259 T02331017





000
SAUS45 KREV 022255
MTRDRA
METAR KDRA 022253Z AUTO 11006KT 10SM BKN100 24/02 A3005 RMK AO2
SLP144 T02390017





000
SAUS45 KREV 022154
MTRDRA
METAR KDRA 022153Z AUTO 26009KT 10SM CLR 22/02 A3007 RMK AO2 SLP153
T02220022





000
SAUS45 KREV 022054
MTRDRA
METAR KDRA 022053Z AUTO 00000KT 10SM SCT100 BKN120 21/02 A3010 RMK
AO2 SLP163 T02110022 58011





000
SAUS45 KREV 021954
MTRDRA
METAR KDRA 021953Z AUTO 18010G14KT 10SM CLR 22/03 A3011 RMK AO2
SLP165 T02170033





000
SAUS45 KREV 021854
MTRDRA
METAR KDRA 021853Z AUTO 21006KT 10SM FEW070 21/04 A3012 RMK AO2
SLP170 T02110039





000
SAUS45 KREV 021854
MTRDRA
METAR KDRA 021853Z AUTO 21006KT 10SM FEW070 21/04 A3012 RMK AO2
SLP170 T02110039





000
SAUS45 KREV 021755
MTRDRA
METAR KDRA 021753Z AUTO VRB05KT 10SM CLR 20/03 A3013 RMK AO2 SLP173
T02000028 10206 20111 50003





000
SAUS45 KREV 021755
MTRDRA
METAR KDRA 021753Z AUTO VRB05KT 10SM CLR 20/03 A3013 RMK AO2 SLP173
T02000028 10206 20111 50003





000
SAUS45 KREV 021655
MTRDRA
METAR KDRA 021653Z AUTO 00000KT 10SM CLR 19/03 A3014 RMK AO2 SLP175
T01940028





000
SAUS45 KREV 021655
MTRDRA
METAR KDRA 021653Z AUTO 00000KT 10SM CLR 19/03 A3014 RMK AO2 SLP175
T01940028





000
SAUS45 KREV 021554
MTRDRA
METAR KDRA 021553Z AUTO 03004KT 10SM CLR 18/04 A3013 RMK AO2 SLP172
T01830039





000
SAUS45 KREV 021454
MTRDRA
METAR KDRA 021453Z AUTO 00000KT 10SM FEW090 BKN110 16/04 A3012 RMK
AO2 SLP171 T01560039 51024





000
SAUS45 KREV 021354
MTRDRA
METAR KDRA 021353Z AUTO 00000KT 10SM FEW090 15/06 A3010 RMK AO2
SLP162 T01500056





000
SAUS45 KREV 021255
MTRDRA
METAR KDRA 021253Z AUTO 00000KT 10SM BKN100 12/05 A3007 RMK AO2
SLP153 T01220050





000
SAUS45 KREV 021155
MTRDRA
METAR KDRA 021153Z AUTO 00000KT 10SM BKN100 12/05 A3004 RMK AO2
SLP142 T01170050 10139 20106 53005





000
SAUS45 KREV 021056
MTRDRA
METAR KDRA 021053Z AUTO 10006KT 10SM CLR 12/06 A3004 RMK AO2 SLP142
T01220056





000
SAUS45 KREV 020954
MTRDRA
METAR KDRA 020953Z AUTO 00000KT 10SM OVC110 12/06 A3003 RMK AO2
SLP140 T01170061





000
SAUS45 KREV 020954
MTRDRA
METAR KDRA 020953Z AUTO 00000KT 10SM OVC110 12/06 A3003 RMK AO2
SLP140 T01170061





000
SAUS45 KREV 020855
MTRDRA
METAR KDRA 020853Z AUTO 06006KT 10SM BKN120 12/06 A3003 RMK AO2
SLP137 T01220061 51007





000
SAUS45 KREV 020754
MTRDRA
METAR KDRA 020753Z AUTO 00000KT 10SM FEW100 12/06 A3002 RMK AO2
SLP136 T01220061 402330100





000
SAUS45 KREV 020655
MTRDRA
METAR KDRA 020653Z AUTO 08004KT 10SM CLR 13/06 A3001 RMK AO2 SLP135
T01280061





000
SAUS45 KREV 020655
MTRDRA
METAR KDRA 020653Z AUTO 08004KT 10SM CLR 13/06 A3001 RMK AO2 SLP135
T01280061





000
SAUS45 KREV 020555
MTRDRA
METAR KDRA 020553Z AUTO 09006KT 10SM CLR 14/06 A3001 RMK AO2 SLP131
T01390056 10222 20139 51014





000
SAUS45 KREV 020555
MTRDRA
METAR KDRA 020553Z AUTO 09006KT 10SM CLR 14/06 A3001 RMK AO2 SLP131
T01390056 10222 20139 51014





000
SAUS45 KREV 020454
MTRDRA
METAR KDRA 020453Z AUTO 10006KT 10SM CLR 15/04 A3000 RMK AO2 SLP128
T01500044





000
SAUS45 KREV 020354
MTRDRA
METAR KDRA 020353Z AUTO 11004KT 10SM CLR 17/02 A2998 RMK AO2 SLP122
T01670022





000
SAUS45 KREV 020254
MTRDRA
METAR KDRA 020253Z AUTO 14007KT 10SM CLR 18/02 A2996 RMK AO2 WSHFT
0152 SLP118 T01780017 53016





000
SAUS45 KREV 020254
MTRDRA
METAR KDRA 020253Z AUTO 14007KT 10SM CLR 18/02 A2996 RMK AO2 WSHFT
0152 SLP118 T01780017 53016





000
SAUS45 KREV 020211
MTRDRA
SPECI KDRA 020209Z AUTO 15015G22KT 10SM FEW060 BKN100 19/01 A2994
RMK AO2 WSHFT 0152 T01890011





000
SAUS45 KREV 020154
MTRDRA
METAR KDRA 020153Z AUTO 06011KT 10SM FEW060 OVC095 20/03 A2993 RMK
AO2 SLP107 T02000028





000
SAUS45 KREV 020055
MTRDRA
METAR KDRA 020053Z AUTO 03005KT 10SM FEW090 SCT120 21/00 A2992 RMK
AO2 SLP101 T02110000





000
SAUS45 KREV 012355
MTRDRA
METAR KDRA 012353Z AUTO 00000KT 10SM CLR 22/00 A2991 RMK AO2 SLP098
T02220000 10233 20178 56005





000
SAUS45 KREV 012355
MTRDRA
METAR KDRA 012353Z AUTO 00000KT 10SM CLR 22/00 A2991 RMK AO2 SLP098
T02220000 10233 20178 56005





000
SAUS45 KREV 012255
MTRDRA
METAR KDRA 012253Z AUTO 09004KT 10SM FEW085 SCT120 21/01 A2991 RMK
AO2 SLP100 T02110011





000
SAUS45 KREV 012255
MTRDRA
METAR KDRA 012253Z AUTO 09004KT 10SM FEW085 SCT120 21/01 A2991 RMK
AO2 SLP100 T02110011





000
SAUS45 KREV 012154
MTRDRA
METAR KDRA 012153Z AUTO VRB03KT 10SM FEW085 FEW100 21/M01 A2992 RMK
AO2 SLP102 T02111006





000
SAUS45 KREV 012054
MTRDRA
METAR KDRA 012053Z AUTO 35004KT 10SM CLR 22/01 A2993 RMK AO2 SLP105
T02170006 58005





000
SAUS45 KREV 012054
MTRDRA
METAR KDRA 012053Z AUTO 35004KT 10SM CLR 22/01 A2993 RMK AO2 SLP105
T02170006 58005





000
SAUS45 KREV 011955
MTRDRA
METAR KDRA 011953Z AUTO VRB04KT 10SM FEW065 21/03 A2993 RMK AO2
SLP107 T02060028





000
SAUS45 KREV 011955
MTRDRA
METAR KDRA 011953Z AUTO VRB04KT 10SM FEW065 21/03 A2993 RMK AO2
SLP107 T02060028





000
SAUS45 KREV 011855
MTRDRA
METAR KDRA 011853Z AUTO 00000KT 10SM FEW060 19/02 A2994 RMK AO2
SLP111 T01890022





000
SAUS45 KREV 011756
MTRDRA
METAR KDRA 011753Z AUTO 02009KT 10SM CLR 19/03 A2994 RMK AO2 SLP110
T01890033 10189 20106 51003





000
SAUS45 KREV 011655
MTRDRA
METAR KDRA 011653Z AUTO 03012KT 10SM CLR 17/03 A2994 RMK AO2 SLP111
T01720028





000
SAUS45 KREV 011554
MTRDRA
METAR KDRA 011553Z AUTO 02013KT 10SM CLR 15/03 A2994 RMK AO2 SLP113
T01500028





000
SAUS45 KREV 011454
MTRDRA
METAR KDRA 011453Z AUTO 03014KT 10SM SCT110 13/03 A2993 RMK AO2
SLP113 T01330028 53014





000
SAUS45 KREV 011454
MTRDRA
METAR KDRA 011453Z AUTO 03014KT 10SM SCT110 13/03 A2993 RMK AO2
SLP113 T01330028 53014





000
SAUS45 KREV 011356
MTRDRA
METAR KDRA 011353Z AUTO 04014KT 10SM CLR 12/03 A2991 RMK AO2 SLP104
T01170028





000
SAUS45 KREV 011254
MTRDRA
METAR KDRA 011253Z AUTO 04015KT 10SM CLR 11/02 A2989 RMK AO2 SLP098
T01060022





000
SAUS45 KREV 011155
MTRDRA
METAR KDRA 011153Z AUTO 07010KT 10SM CLR 11/03 A2989 RMK AO2 SLP097
70016 T01110028 10128 20100 53003





000
SAUS45 KREV 011055
MTRDRA
METAR KDRA 011053Z AUTO 08008KT 10SM CLR 11/04 A2988 RMK AO2 SLP093
T01060039





000
SAUS45 KREV 010954
MTRDRA
METAR KDRA 010953Z AUTO 08006KT 10SM CLR 11/04 A2987 RMK AO2 SLP093
T01060044





000
SAUS45 KREV 010855
MTRDRA
METAR KDRA 010853Z AUTO 07006KT 10SM BKN095 11/06 A2988 RMK AO2
SLP094 T01060061 55000





000
SAUS45 KREV 010755
MTRDRA
METAR KDRA 010753Z AUTO 04009KT 10SM CLR 12/06 A2988 RMK AO2 SLP095
T01170061 401670078





000
SAUS45 KREV 010755
MTRDRA
METAR KDRA 010753Z AUTO 04009KT 10SM CLR 12/06 A2988 RMK AO2 SLP095
T01170061 401670078





000
SAUS45 KREV 010654
MTRDRA
METAR KDRA 010653Z AUTO 04006KT 10SM CLR 11/07 A2988 RMK AO2 SLP097
T01060072





000
SAUS45 KREV 010555
MTRDRA
METAR KDRA 010553Z AUTO 11004KT 10SM BKN095 13/07 A2988 RMK AO2
SLP096 60000 T01280072 10167 20117 51017





000
SAUS45 KREV 010555
MTRDRA
METAR KDRA 010553Z AUTO 11004KT 10SM BKN095 13/07 A2988 RMK AO2
SLP096 60000 T01280072 10167 20117 51017





000
SAUS45 KREV 010454
MTRDRA
METAR KDRA 010453Z AUTO 34003KT 10SM BKN070 OVC090 13/07 A2987 RMK
AO2 SLP096 T01330067





000
SAUS45 KREV 010354
MTRDRA
METAR KDRA 010353Z AUTO 36009KT 10SM BKN070 OVC095 12/08 A2985 RMK
AO2 PRESRR SLP090 T01220083





000
SAUS45 KREV 010254
MTRDRA
METAR KDRA 010253Z AUTO 11015G20KT 10SM FEW065 BKN090 OVC110 12/08
A2982 RMK AO2 PK WND 12027/0154 SLP080 60000 T01220078 53012





000
SAUS45 KREV 010254
MTRDRA
METAR KDRA 010253Z AUTO 11015G20KT 10SM FEW065 BKN090 OVC110 12/08
A2982 RMK AO2 PK WND 12027/0154 SLP080 60000 T01220078 53012





000
SAUS45 KREV 010154
MTRDRA
METAR KDRA 010153Z AUTO 12022G32KT 10SM BKN085 OVC110 16/06 A2981
RMK AO2 PK WND 12032/0152 RAE0058 SLP071 P0000 T01560061





000
SAUS45 KREV 010055
MTRDRA
METAR KDRA 010053Z AUTO 13004KT 10SM -RA FEW047 BKN070 OVC110 15/07
A2979 RMK AO2 RAB39 SLP066 P0000 T01500067





000
SAUS45 KREV 302355
MTRDRA
METAR KDRA 302353Z AUTO 10013KT 10SM SCT100 OVC110 16/06 A2979 RMK
AO2 SLP063 T01560061 10167 20106 55008





000
SAUS45 KREV 302255
MTRDRA
METAR KDRA 302253Z AUTO 05009KT 10SM SCT080 OVC100 17/04 A2978 RMK
AO2 SLP061 T01670044





000
SAUS45 KREV 302154
MTRDRA
METAR KDRA 302153Z AUTO 08005KT 10SM OVC075 14/06 A2980 RMK AO2
SLP069 T01440061





000
SAUS45 KREV 302054
MTRDRA
METAR KDRA 302053Z AUTO 03019KT 10SM FEW037 FEW055 OVC100 14/06
A2981 RMK AO2 SLP072 T01440056 58000





000
SAUS45 KREV 302054
MTRDRA
METAR KDRA 302053Z AUTO 03019KT 10SM FEW037 FEW055 OVC100 14/06
A2981 RMK AO2 SLP072 T01440056 58000





000
SAUS45 KREV 301954
MTRDRA
METAR KDRA 301953Z AUTO 08008KT 10SM OVC040 12/07 A2981 RMK AO2
SLP073 T01220072





000
SAUS45 KREV 301854
MTRDRA
METAR KDRA 301853Z AUTO 05013G23KT 10SM BKN041 OVC055 12/07 A2982
RMK AO2 SLP072 T01170067





000
SAUS45 KREV 301854
MTRDRA
METAR KDRA 301853Z AUTO 05013G23KT 10SM BKN041 OVC055 12/07 A2982
RMK AO2 SLP072 T01170067





000
SAUS45 KREV 301755
MTRDRA
METAR KDRA 301753Z AUTO 06011KT 10SM SCT028 BKN036 OVC044 11/07
A2981 RMK AO2 RAB03E32 SLP070 P0000 60016 T01060067 10106 20078
51008





000
SAUS45 KREV 301755
MTRDRA
METAR KDRA 301753Z AUTO 06011KT 10SM SCT028 BKN036 OVC044 11/07
A2981 RMK AO2 RAB03E32 SLP070 P0000 60016 T01060067 10106 20078
51008





000
SAUS45 KREV 301655
MTRDRA
METAR KDRA 301653Z AUTO 11006KT 10SM FEW018 OVC034 08/06 A2980 RMK
AO2 RAE18 SLP068 P0002 T00830061





000
SAUS45 KREV 301554
MTRDRA
METAR KDRA 301553Z AUTO 11011KT 7SM -RA OVC017 08/06 A2980 RMK AO2
SLP065 P0006 T00780056





000
SAUS45 KREV 301554
MTRDRA
METAR KDRA 301553Z AUTO 11011KT 7SM -RA OVC017 08/06 A2980 RMK AO2
SLP065 P0006 T00780056





000
SAUS45 KREV 301454
MTRDRA
METAR KDRA 301453Z AUTO 09007KT 9SM -RA BKN020 OVC032 08/06 A2979
RMK AO2 SLP059 P0004 60008 T00830061 53008





000
SAUS45 KREV 301454
MTRDRA
METAR KDRA 301453Z AUTO 09007KT 9SM -RA BKN020 OVC032 08/06 A2979
RMK AO2 SLP059 P0004 60008 T00830061 53008





000
SAUS45 KREV 301420
MTRDRA
SPECI KDRA 301419Z AUTO 05006KT 9SM -RA BKN025 OVC036 08/06 A2978
RMK AO2 P0002 T00780061





000
SAUS45 KREV 301354
MTRDRA
METAR KDRA 301353Z AUTO 07005KT 7SM -RA FEW030 OVC036 08/06 A2977
RMK AO2 SLP055 P0004 T00780061





000
SAUS45 KREV 301354
MTRDRA
METAR KDRA 301353Z AUTO 07005KT 7SM -RA FEW030 OVC036 08/06 A2977
RMK AO2 SLP055 P0004 T00780061





000
SAUS45 KREV 301255
MTRDRA
METAR KDRA 301253Z AUTO 05004KT 10SM -RA FEW019 OVC055 08/07 A2976
RMK AO2 RAB47 SLP049 P0000 T00830067





000
SAUS45 KREV 301239
MTRDRA
SPECI KDRA 301237Z AUTO 06008KT 10SM SCT018 BKN031 OVC060 09/07
A2976 RMK AO2 T00890067





000
SAUS45 KREV 301239
MTRDRA
SPECI KDRA 301237Z AUTO 06008KT 10SM SCT018 BKN031 OVC060 09/07
A2976 RMK AO2 T00890067





000
SAUS45 KREV 301216
MTRDRA
SPECI KDRA 301214Z AUTO 05007KT 10SM FEW017 BKN029 OVC065 09/06
A2976 RMK AO2 T00890061





000
SAUS45 KREV 301216
MTRDRA
SPECI KDRA 301214Z AUTO 05007KT 10SM FEW017 BKN029 OVC065 09/06
A2976 RMK AO2 T00890061





000
SAUS45 KREV 301155
MTRDRA
METAR KDRA 301153Z AUTO 08012KT 10SM OVC060 08/05 A2976 RMK AO2
RAE46 SLP048 P0001 60026 70026 T00830050 10161 20083 58011





000
SAUS45 KREV 301055
MTRDRA
METAR KDRA 301053Z AUTO 13011KT 10SM -RA OVC047 08/06 A2978 RMK AO2
SLP053 P0005 T00830061





000
SAUS45 KREV 301055
MTRDRA
METAR KDRA 301053Z AUTO 13011KT 10SM -RA OVC047 08/06 A2978 RMK AO2
SLP053 P0005 T00830061





    US Dept of Commerce
    National Oceanic and Atmospheric Administration
    National Weather Service
    1325 East West Highway
    Silver Spring, MD 20910
    Page Author: NWS Internet Services Team
Disclaimer
Information Quality
Credits
Glossary
Privacy Policy
Freedom of Information Act (FOIA)
About Us
Career Opportunities